Terminal Aerodrome Forecast
Issued by NWS

Home | Current Version | Previous Version | Graphics & Text | Print | Product List | Glossary On
Versions: 1 2 3 4 5 6 7 8 9 10 11 12 13 14 15
000
FTUS43 KICT 311127
TAFRSL
TAF
KRSL 311127Z 3112/0112 01007KT P6SM SCT120
     FM311300 04007KT P6SM SCT200
     FM311600 10012KT P6SM SKC
     FM010000 14008KT P6SM SKC
     FM010900 14008KT P6SM SCT012=

USA.gov is the U.S. government's official web portal to all federal, state and local government web resources and services.